This is the latest recevied weather packets stored in our database for station/object KC3WWU. If no packets are shown the sender has not sent any weather packets the latest 10 day(s).
| Time | Temp. | Humidity | Pressure | Rain* | Wind** | Luminosity | Snow |
|---|---|---|---|---|---|---|---|
| 1778051200 | 12.78° C | 90% | 1006.3 hPa | 0 mm | - | 0 W/m² | - |
| 1778050897 | 12.78° C | 90% | 1006.4 hPa | 0 mm | - | 0 W/m² | - |
| 1778050595 | 12.78° C | 90% | 1006.4 hPa | 0 mm | - | 0 W/m² | - |
| 1778050291 | 12.78° C | 90% | 1006.4 hPa | 0 mm | - | 0 W/m² | - |
| 1778049988 | 13.33° C | 89% | 1006.7 hPa | 0 mm | - | 0 W/m² | - |
| 1778049683 | 13.33° C | 88% | 1006.8 hPa | 0 mm | - | 0 W/m² | - |
| 1778049382 | 13.33° C | 86% | 1006.9 hPa | 0 mm | - | 0 W/m² | - |
| 1778049079 | 13.89° C | 85% | 1007 hPa | 0 mm | - | 0 W/m² | - |
| 1778048778 | 13.89° C | 84% | 1006.8 hPa | 0 mm | - | 0 W/m² | - |
| 1778048474 | 13.89° C | 83% | 1006.7 hPa | 0 mm | - | 0 W/m² | - |
| 1778048170 | 13.89° C | 82% | 1007 hPa | 0 mm | - | 0 W/m² | - |
| 1778047868 | 14.44° C | 81% | 1007 hPa | 0 mm | - | 0 W/m² | - |
| 1778047566 | 14.44° C | 81% | 1007 hPa | 0 mm | - | 0 W/m² | - |
| 1778047263 | 14.44° C | 80% | 1006.9 hPa | 0 mm | - | 0 W/m² | - |
| 1778046960 | 14.44° C | 78% | 1007 hPa | 0 mm | - | 0 W/m² | - |
| 1778046657 | 15.56° C | 76% | 1007.1 hPa | 0 mm | - | 0 W/m² | - |
| 1778046354 | 15.56° C | 73% | 1006.8 hPa | 0 mm | - | 0 W/m² | - |
| 1778046049 | 16.11° C | 70% | 1007 hPa | 0 mm | - | 0 W/m² | - |
| 1778045748 | 17.22° C | 62% | 1007.1 hPa | 0 mm | - | 0 W/m² | - |
| 1778045446 | 17.78° C | 59% | 1006.8 hPa | 0 mm | - | 0 W/m² | - |
| 1778045144 | 17.22° C | 59% | 1006.8 hPa | 0 mm | - | 0 W/m² | - |
| 1778044841 | 17.22° C | 59% | 1006.6 hPa | 0 mm | - | 0 W/m² | - |
| 1778044538 | 17.22° C | 62% | 1006.9 hPa | 0 mm | - | 0 W/m² | - |
| 1778044235 | 16.67° C | 62% | 1006.8 hPa | 0 mm | - | 0 W/m² | - |
| 1778043933 | 17.22° C | 62% | 1006.6 hPa | 0 mm | - | 0 W/m² | - |
* Rain latest hour (hover to see other rain measurements)
** Current wind speed in m/s (hover to see current wind gust speed)